CPA663 VHHH-VABB
Flight info
| Callsign | CPA663 |
|---|---|
| Flight time | N/A |
| Altitude | 38000 |
| Route | PECAN V10 SIKOU/K0900S1160 A202 ASSAD/K0902F380 A206 NALAO/N0487F380 A206 LPB B465 MDY/N0485F400 B465 CEA Q20 OPAKA EMRAK2A |
| Aircraft | B772/H-SDE2E3FGHIJ5LORVWXY/LB1D1 |
Departure
| Time | 2026-05-07 14:33 |
|---|---|
| Airport | Hong Kong International Airport (VHHH) |
Arrival
| Time | N/A |
|---|---|
| Airport | Chhatrapati Shivaji Maharaj International Airport (VABB) |
| Time | Latitude | Longitude | Altitude | Speed | Heading |
|---|---|---|---|---|---|
| 2026-05-07 13:30 | 22.31427 | 113.92931 | 41 ft | 0 kts | 160° |
| 2026-05-07 14:15 | 22.31429 | 113.92930 | 41 ft | 1 kts | 160° |
| 2026-05-07 14:15 | 22.31440 | 113.92925 | 41 ft | 2 kts | 160° |
| 2026-05-07 14:16 | 22.31452 | 113.92921 | 41 ft | 2 kts | 160° |
| 2026-05-07 14:16 | 22.31463 | 113.92917 | 41 ft | 2 kts | 160° |
| 2026-05-07 14:16 | 22.31474 | 113.92912 | 41 ft | 2 kts | 160° |
| 2026-05-07 14:16 | 22.31485 | 113.92909 | 41 ft | 2 kts | 175° |
| 2026-05-07 14:17 | 22.31497 | 113.92909 | 41 ft | 2 kts | 191° |
| 2026-05-07 14:17 | 22.31512 | 113.92915 | 41 ft | 2 kts | 208° |
| 2026-05-07 14:17 | 22.31524 | 113.92923 | 41 ft | 2 kts | 225° |
| 2026-05-07 14:17 | 22.31532 | 113.92934 | 41 ft | 2 kts | 239° |
| 2026-05-07 14:18 | 22.31536 | 113.92943 | 41 ft | 0 kts | 251° |
| 2026-05-07 14:18 | 22.31537 | 113.92947 | 41 ft | 0 kts | 252° |
| 2026-05-07 14:21 | 22.31537 | 113.92945 | 41 ft | 1 kts | 251° |
| 2026-05-07 14:21 | 22.31529 | 113.92922 | 41 ft | 6 kts | 250° |
| 2026-05-07 14:21 | 22.31509 | 113.92860 | 41 ft | 12 kts | 251° |
| 2026-05-07 14:21 | 22.31494 | 113.92774 | 41 ft | 15 kts | 276° |
| 2026-05-07 14:22 | 22.31540 | 113.92651 | 41 ft | 16 kts | 295° |
| 2026-05-07 14:22 | 22.31571 | 113.92584 | 41 ft | 17 kts | 296° |
| 2026-05-07 14:22 | 22.31620 | 113.92477 | 41 ft | 18 kts | 296° |
| 2026-05-07 14:22 | 22.31639 | 113.92357 | 41 ft | 18 kts | 254° |
| 2026-05-07 14:23 | 22.31604 | 113.92242 | 41 ft | 19 kts | 250° |
| 2026-05-07 14:23 | 22.31574 | 113.92152 | 41 ft | 10 kts | 251° |
| 2026-05-07 14:23 | 22.31552 | 113.92083 | 41 ft | 12 kts | 251° |
| 2026-05-07 14:23 | 22.31526 | 113.92001 | 41 ft | 14 kts | 251° |
| 2026-05-07 14:24 | 22.31494 | 113.91915 | 41 ft | 15 kts | 233° |
| 2026-05-07 14:24 | 22.31408 | 113.91902 | 41 ft | 16 kts | 161° |
| 2026-05-07 14:24 | 22.31314 | 113.91937 | 41 ft | 17 kts | 160° |
| 2026-05-07 14:24 | 22.31208 | 113.91977 | 41 ft | 17 kts | 161° |
| 2026-05-07 14:25 | 22.31103 | 113.92017 | 41 ft | 18 kts | 160° |
| 2026-05-07 14:25 | 22.30996 | 113.92057 | 41 ft | 19 kts | 161° |
| 2026-05-07 14:25 | 22.30889 | 113.92096 | 41 ft | 18 kts | 161° |
| 2026-05-07 14:25 | 22.30784 | 113.92135 | 41 ft | 18 kts | 161° |
| 2026-05-07 14:26 | 22.30694 | 113.92160 | 41 ft | 13 kts | 187° |
| 2026-05-07 14:26 | 22.30640 | 113.92095 | 41 ft | 15 kts | 251° |
| 2026-05-07 14:26 | 22.30612 | 113.92004 | 41 ft | 16 kts | 251° |
| 2026-05-07 14:26 | 22.30578 | 113.91900 | 41 ft | 17 kts | 251° |
| 2026-05-07 14:27 | 22.30544 | 113.91794 | 41 ft | 17 kts | 251° |
| 2026-05-07 14:27 | 22.30507 | 113.91680 | 41 ft | 18 kts | 251° |
| 2026-05-07 14:27 | 22.30468 | 113.91560 | 41 ft | 19 kts | 250° |
| 2026-05-07 14:27 | 22.30430 | 113.91443 | 41 ft | 20 kts | 251° |
| 2026-05-07 14:28 | 22.30391 | 113.91318 | 41 ft | 20 kts | 251° |
| 2026-05-07 14:28 | 22.30351 | 113.91199 | 41 ft | 19 kts | 250° |
| 2026-05-07 14:28 | 22.30309 | 113.91074 | 41 ft | 20 kts | 251° |
| 2026-05-07 14:28 | 22.30269 | 113.90945 | 41 ft | 17 kts | 252° |
| 2026-05-07 14:29 | 22.30238 | 113.90846 | 41 ft | 16 kts | 251° |
| 2026-05-07 14:29 | 22.30204 | 113.90739 | 41 ft | 17 kts | 250° |
| 2026-05-07 14:29 | 22.30170 | 113.90636 | 41 ft | 17 kts | 251° |
| 2026-05-07 14:29 | 22.30133 | 113.90522 | 41 ft | 18 kts | 251° |
| 2026-05-07 14:30 | 22.30095 | 113.90404 | 41 ft | 19 kts | 251° |
| 2026-05-07 14:30 | 22.30056 | 113.90283 | 41 ft | 20 kts | 251° |
| 2026-05-07 14:30 | 22.30017 | 113.90162 | 41 ft | 20 kts | 251° |
| 2026-05-07 14:30 | 22.29974 | 113.90030 | 41 ft | 21 kts | 251° |
| 2026-05-07 14:31 | 22.29930 | 113.89892 | 41 ft | 21 kts | 251° |
| 2026-05-07 14:31 | 22.29890 | 113.89771 | 41 ft | 19 kts | 243° |
| 2026-05-07 14:31 | 22.29782 | 113.89748 | 41 ft | 19 kts | 158° |
| 2026-05-07 14:31 | 22.29684 | 113.89789 | 41 ft | 14 kts | 156° |
| 2026-05-07 14:32 | 22.29644 | 113.89867 | 41 ft | 15 kts | 83° |
| 2026-05-07 14:32 | 22.29653 | 113.89904 | 41 ft | 0 kts | 71° |
| 2026-05-07 14:32 | 22.29655 | 113.89910 | 41 ft | 7 kts | 71° |
| 2026-05-07 14:32 | 22.29722 | 113.90116 | 41 ft | 65 kts | 71° |
| 2026-05-07 14:33 | 22.29911 | 113.90694 | 41 ft | 122 kts | 70° |
| 2026-05-07 14:33 | 22.30189 | 113.91561 | 67 ft | 162 kts | 68° |
| 2026-05-07 14:33 | 22.30550 | 113.92516 | 484 ft | 166 kts | 68° |
| 2026-05-07 14:33 | 22.30882 | 113.93568 | 1022 ft | 172 kts | 75° |
| 2026-05-07 14:34 | 22.31189 | 113.94647 | 1437 ft | 178 kts | 73° |
| 2026-05-07 14:34 | 22.31552 | 113.95801 | 1634 ft | 193 kts | 72° |
| 2026-05-07 14:34 | 22.31958 | 113.97062 | 1837 ft | 209 kts | 72° |
| 2026-05-07 14:34 | 22.32386 | 113.98392 | 2058 ft | 225 kts | 72° |
| 2026-05-07 14:35 | 22.32854 | 113.99847 | 2328 ft | 239 kts | 72° |
| 2026-05-07 14:35 | 22.33357 | 114.01412 | 2593 ft | 255 kts | 72° |
| 2026-05-07 14:35 | 22.33800 | 114.03027 | 2989 ft | 262 kts | 81° |
| 2026-05-07 14:35 | 22.33829 | 114.04775 | 3490 ft | 264 kts | 101° |
| 2026-05-07 14:36 | 22.33189 | 114.06482 | 3988 ft | 267 kts | 124° |
| 2026-05-07 14:36 | 22.32078 | 114.07752 | 4454 ft | 270 kts | 143° |
| 2026-05-07 14:36 | 22.30593 | 114.08575 | 4943 ft | 272 kts | 162° |
| 2026-05-07 14:36 | 22.28914 | 114.08885 | 5477 ft | 274 kts | 179° |
| 2026-05-07 14:37 | 22.27217 | 114.08820 | 5990 ft | 276 kts | 183° |
| 2026-05-07 14:37 | 22.23841 | 114.08691 | 6945 ft | 281 kts | 181° |
| 2026-05-07 14:37 | 22.21975 | 114.08663 | 7449 ft | 284 kts | 181° |
| 2026-05-07 14:38 | 22.20179 | 114.08645 | 7939 ft | 286 kts | 181° |
| 2026-05-07 14:38 | 22.18369 | 114.08684 | 8400 ft | 290 kts | 173° |
| 2026-05-07 14:38 | 22.16603 | 114.09349 | 8827 ft | 295 kts | 148° |
| 2026-05-07 14:38 | 22.15232 | 114.10733 | 9268 ft | 299 kts | 126° |
| 2026-05-07 14:39 | 22.14263 | 114.12438 | 9740 ft | 301 kts | 118° |
| 2026-05-07 14:39 | 22.13393 | 114.14243 | 10146 ft | 306 kts | 117° |
| 2026-05-07 14:39 | 22.12483 | 114.16179 | 10341 ft | 321 kts | 117° |
| 2026-05-07 14:39 | 22.11529 | 114.18198 | 10495 ft | 336 kts | 117° |
| 2026-05-07 14:40 | 22.10550 | 114.20262 | 10650 ft | 350 kts | 117° |
| 2026-05-07 14:40 | 22.09485 | 114.22501 | 10806 ft | 364 kts | 117° |
| 2026-05-07 14:40 | 22.08326 | 114.24725 | 10971 ft | 376 kts | 124° |
| 2026-05-07 14:40 | 22.06771 | 114.26762 | 11138 ft | 387 kts | 136° |
| 2026-05-07 14:41 | 22.04965 | 114.28408 | 11471 ft | 390 kts | 143° |
| 2026-05-07 14:41 | 22.02973 | 114.29830 | 11901 ft | 392 kts | 152° |
| 2026-05-07 14:41 | 22.00746 | 114.30899 | 12349 ft | 393 kts | 162° |
| 2026-05-07 14:41 | 21.98256 | 114.31566 | 12832 ft | 394 kts | 172° |
| 2026-05-07 14:42 | 21.95776 | 114.31754 | 13324 ft | 396 kts | 182° |
| 2026-05-07 14:42 | 21.93074 | 114.31441 | 13870 ft | 397 kts | 193° |
| 2026-05-07 14:42 | 21.90445 | 114.30589 | 14424 ft | 399 kts | 204° |
| 2026-05-07 14:42 | 21.88021 | 114.29230 | 15009 ft | 401 kts | 214° |
| 2026-05-07 14:43 | 21.85894 | 114.27476 | 15614 ft | 402 kts | 221° |
| 2026-05-07 14:43 | 21.83903 | 114.25648 | 16214 ft | 405 kts | 222° |
| 2026-05-07 14:43 | 21.81886 | 114.23825 | 16767 ft | 409 kts | 221° |
| 2026-05-07 14:43 | 21.79856 | 114.22025 | 17300 ft | 413 kts | 221° |
| 2026-05-07 14:44 | 21.77768 | 114.20194 | 17848 ft | 416 kts | 221° |
| 2026-05-07 14:44 | 21.75676 | 114.18379 | 18392 ft | 420 kts | 220° |
| 2026-05-07 14:44 | 21.73565 | 114.16558 | 18919 ft | 423 kts | 220° |
| 2026-05-07 14:44 | 21.71431 | 114.14727 | 19428 ft | 427 kts | 220° |
| 2026-05-07 14:45 | 21.69288 | 114.12894 | 19921 ft | 431 kts | 220° |
| 2026-05-07 14:45 | 21.67115 | 114.11060 | 20389 ft | 436 kts | 218° |
| 2026-05-07 14:45 | 21.64672 | 114.09438 | 20864 ft | 442 kts | 209° |
| 2026-05-07 14:45 | 21.62010 | 114.08253 | 21343 ft | 448 kts | 200° |
| 2026-05-07 14:46 | 21.59231 | 114.07445 | 21821 ft | 453 kts | 196° |
| 2026-05-07 14:46 | 21.56298 | 114.06683 | 22298 ft | 456 kts | 196° |
| 2026-05-07 14:46 | 21.53369 | 114.05928 | 22779 ft | 460 kts | 195° |
| 2026-05-07 14:46 | 21.50486 | 114.05185 | 23264 ft | 463 kts | 196° |
| 2026-05-07 14:47 | 21.47502 | 114.04414 | 23743 ft | 466 kts | 196° |
| 2026-05-07 14:47 | 21.44462 | 114.03370 | 24242 ft | 466 kts | 205° |
| 2026-05-07 14:47 | 21.41573 | 114.01808 | 24709 ft | 466 kts | 213° |
| 2026-05-07 14:47 | 21.38950 | 114.00005 | 25170 ft | 469 kts | 216° |
| 2026-05-07 14:48 | 21.36355 | 113.98168 | 25613 ft | 472 kts | 216° |
| 2026-05-07 14:48 | 21.33764 | 113.96332 | 26048 ft | 475 kts | 216° |
| 2026-05-07 14:48 | 21.31125 | 113.94463 | 26465 ft | 478 kts | 216° |
| 2026-05-07 14:48 | 21.28517 | 113.92619 | 26869 ft | 481 kts | 216° |
| 2026-05-07 14:49 | 21.25892 | 113.90762 | 27269 ft | 484 kts | 216° |
| 2026-05-07 14:49 | 21.23201 | 113.88862 | 27652 ft | 488 kts | 216° |
| 2026-05-07 14:49 | 21.20534 | 113.86979 | 28035 ft | 490 kts | 216° |
| 2026-05-07 14:49 | 21.17875 | 113.85103 | 28408 ft | 493 kts | 216° |
| 2026-05-07 14:50 | 21.15131 | 113.83166 | 28795 ft | 496 kts | 216° |
| 2026-05-07 14:50 | 21.12417 | 113.80915 | 29147 ft | 496 kts | 224° |
| 2026-05-07 14:50 | 21.10048 | 113.78260 | 29472 ft | 497 kts | 233° |
| 2026-05-07 14:50 | 21.08079 | 113.75262 | 29805 ft | 498 kts | 242° |
| 2026-05-07 14:51 | 21.06554 | 113.71986 | 30187 ft | 497 kts | 250° |
| 2026-05-07 14:51 | 21.05427 | 113.68697 | 30657 ft | 496 kts | 253° |
| 2026-05-07 14:51 | 21.04366 | 113.65421 | 31220 ft | 493 kts | 253° |
| 2026-05-07 14:51 | 21.03336 | 113.62233 | 31744 ft | 491 kts | 253° |
| 2026-05-07 14:52 | 21.02302 | 113.59032 | 32223 ft | 490 kts | 253° |
| 2026-05-07 14:52 | 21.01249 | 113.55780 | 32666 ft | 489 kts | 253° |
| 2026-05-07 14:52 | 21.00220 | 113.52606 | 33182 ft | 488 kts | 253° |
| 2026-05-07 14:52 | 20.99195 | 113.49446 | 33770 ft | 485 kts | 253° |
| 2026-05-07 14:53 | 20.98157 | 113.46252 | 34388 ft | 482 kts | 253° |
| 2026-05-07 14:53 | 20.97138 | 113.43117 | 34963 ft | 479 kts | 253° |
| 2026-05-07 14:53 | 20.96112 | 113.39965 | 35502 ft | 477 kts | 253° |
| 2026-05-07 14:53 | 20.95100 | 113.36856 | 35972 ft | 476 kts | 253° |
| 2026-05-07 14:54 | 20.94088 | 113.33752 | 36385 ft | 475 kts | 253° |
| 2026-05-07 14:54 | 20.93087 | 113.30684 | 36799 ft | 474 kts | 253° |
| 2026-05-07 14:54 | 20.92068 | 113.27561 | 37175 ft | 473 kts | 253° |
| 2026-05-07 14:54 | 20.91090 | 113.24566 | 37504 ft | 473 kts | 253° |
| 2026-05-07 14:55 | 20.90071 | 113.21448 | 37811 ft | 472 kts | 253° |
| 2026-05-07 14:55 | 20.89096 | 113.18467 | 37939 ft | 474 kts | 253° |
| 2026-05-07 14:55 | 20.87137 | 113.12484 | 37943 ft | 474 kts | 253° |
| 2026-05-07 14:56 | 20.85170 | 113.06486 | 37942 ft | 473 kts | 253° |
| 2026-05-07 14:56 | 20.83155 | 113.00346 | 37928 ft | 475 kts | 253° |
| 2026-05-07 14:57 | 20.81107 | 112.94118 | 37922 ft | 475 kts | 253° |
| 2026-05-07 14:57 | 20.79044 | 112.87853 | 37920 ft | 474 kts | 253° |
| 2026-05-07 14:58 | 20.77007 | 112.81673 | 37923 ft | 474 kts | 253° |
| 2026-05-07 14:58 | 20.74985 | 112.75549 | 37918 ft | 474 kts | 253° |
| 2026-05-07 14:59 | 20.73003 | 112.69551 | 37915 ft | 475 kts | 253° |
| 2026-05-07 14:59 | 20.70997 | 112.63492 | 37916 ft | 475 kts | 253° |
| 2026-05-07 15:00 | 20.69007 | 112.57488 | 37914 ft | 475 kts | 253° |
| 2026-05-07 15:00 | 20.66969 | 112.51347 | 37911 ft | 475 kts | 253° |
| 2026-05-07 15:01 | 20.64954 | 112.45283 | 37910 ft | 476 kts | 253° |
| 2026-05-07 15:01 | 20.62932 | 112.39207 | 37910 ft | 476 kts | 253° |
| 2026-05-07 15:02 | 20.61019 | 112.33463 | 37914 ft | 481 kts | 253° |
| 2026-05-07 15:02 | 20.59027 | 112.27490 | 37916 ft | 487 kts | 252° |
| 2026-05-07 15:03 | 20.57271 | 112.21371 | 37924 ft | 486 kts | 262° |
| 2026-05-07 15:03 | 20.56904 | 112.14902 | 37930 ft | 481 kts | 276° |
| 2026-05-07 15:04 | 20.57998 | 112.08907 | 37928 ft | 480 kts | 289° |
| 2026-05-07 15:04 | 20.60345 | 112.03172 | 37931 ft | 478 kts | 296° |
| 2026-05-07 15:05 | 20.63028 | 111.97302 | 37930 ft | 479 kts | 296° |
| 2026-05-07 15:05 | 20.65620 | 111.91601 | 37929 ft | 479 kts | 296° |
| 2026-05-07 15:06 | 20.68314 | 111.85650 | 37928 ft | 479 kts | 296° |
| 2026-05-07 15:06 | 20.70970 | 111.79764 | 37928 ft | 479 kts | 296° |
| 2026-05-07 15:07 | 20.73675 | 111.73756 | 37926 ft | 479 kts | 296° |
| 2026-05-07 15:07 | 20.76328 | 111.67854 | 37924 ft | 479 kts | 296° |
| 2026-05-07 15:08 | 20.79030 | 111.61835 | 37923 ft | 479 kts | 296° |
| 2026-05-07 15:08 | 20.81309 | 111.56151 | 37922 ft | 479 kts | 288° |
| 2026-05-07 15:09 | 20.82352 | 111.49788 | 37918 ft | 483 kts | 274° |
| 2026-05-07 15:09 | 20.81826 | 111.43310 | 37917 ft | 486 kts | 259° |
| 2026-05-07 15:10 | 20.79928 | 111.36928 | 37921 ft | 489 kts | 253° |
| 2026-05-07 15:10 | 20.77767 | 111.30451 | 37925 ft | 489 kts | 252° |
| 2026-05-07 15:11 | 20.75662 | 111.24171 | 37927 ft | 490 kts | 252° |
| 2026-05-07 15:11 | 20.73469 | 111.17645 | 37925 ft | 489 kts | 252° |
| 2026-05-07 15:12 | 20.71397 | 111.11493 | 37925 ft | 489 kts | 252° |
| 2026-05-07 15:12 | 20.69278 | 111.05209 | 37919 ft | 489 kts | 252° |
| 2026-05-07 15:13 | 20.67151 | 110.98916 | 37912 ft | 489 kts | 252° |
| 2026-05-07 15:13 | 20.65016 | 110.92605 | 37908 ft | 489 kts | 252° |
| 2026-05-07 15:14 | 20.62914 | 110.86367 | 37907 ft | 488 kts | 252° |
| 2026-05-07 15:14 | 20.60771 | 110.79978 | 37908 ft | 488 kts | 252° |
| 2026-05-07 15:15 | 20.58651 | 110.73669 | 37906 ft | 489 kts | 252° |
| 2026-05-07 15:15 | 20.56481 | 110.67223 | 37905 ft | 489 kts | 252° |
| 2026-05-07 15:16 | 20.54347 | 110.60892 | 37905 ft | 489 kts | 252° |
| 2026-05-07 15:16 | 20.52192 | 110.54507 | 37904 ft | 490 kts | 252° |
| 2026-05-07 15:17 | 20.49489 | 110.48457 | 37900 ft | 494 kts | 239° |
| 2026-05-07 15:17 | 20.45586 | 110.43059 | 37905 ft | 497 kts | 233° |
| 2026-05-07 15:18 | 20.41573 | 110.37802 | 37906 ft | 496 kts | 233° |
| 2026-05-07 15:18 | 20.37519 | 110.32498 | 37911 ft | 497 kts | 233° |
| 2026-05-07 15:19 | 20.33498 | 110.27242 | 37908 ft | 496 kts | 233° |
| 2026-05-07 15:19 | 20.29497 | 110.22012 | 37903 ft | 496 kts | 233° |
| 2026-05-07 15:20 | 20.25555 | 110.16752 | 37899 ft | 496 kts | 233° |
| 2026-05-07 15:20 | 20.21578 | 110.11437 | 37898 ft | 497 kts | 233° |
| 2026-05-07 15:21 | 20.17612 | 110.06145 | 37896 ft | 497 kts | 233° |
| 2026-05-07 15:21 | 20.13664 | 110.00886 | 37893 ft | 497 kts | 233° |
| 2026-05-07 15:22 | 20.09668 | 109.95567 | 37894 ft | 497 kts | 233° |
| 2026-05-07 15:22 | 20.05768 | 109.90382 | 37893 ft | 497 kts | 233° |
| 2026-05-07 15:23 | 20.01737 | 109.85029 | 37891 ft | 497 kts | 233° |
| 2026-05-07 15:23 | 19.97775 | 109.79772 | 37892 ft | 496 kts | 233° |
| 2026-05-07 15:24 | 19.93825 | 109.74535 | 37892 ft | 495 kts | 233° |
| 2026-05-07 15:24 | 19.89888 | 109.69321 | 37894 ft | 497 kts | 234° |
| 2026-05-07 15:25 | 19.85858 | 109.63987 | 37892 ft | 497 kts | 234° |
| 2026-05-07 15:25 | 19.81772 | 109.58584 | 37895 ft | 497 kts | 234° |
| 2026-05-07 15:26 | 19.77764 | 109.53290 | 37897 ft | 497 kts | 234° |
| 2026-05-07 15:26 | 19.73742 | 109.47983 | 37897 ft | 496 kts | 234° |
| 2026-05-07 15:27 | 19.69752 | 109.42722 | 37898 ft | 495 kts | 234° |
| 2026-05-07 15:27 | 19.65728 | 109.37420 | 37901 ft | 495 kts | 234° |
| 2026-05-07 15:28 | 19.61661 | 109.32067 | 37908 ft | 495 kts | 233° |
| 2026-05-07 15:28 | 19.57611 | 109.26741 | 37909 ft | 495 kts | 233° |
| 2026-05-07 15:29 | 19.53577 | 109.21440 | 37910 ft | 494 kts | 233° |
| 2026-05-07 15:29 | 19.49510 | 109.16125 | 37913 ft | 494 kts | 233° |
| 2026-05-07 15:30 | 19.45493 | 109.10918 | 37916 ft | 495 kts | 233° |
| 2026-05-07 15:30 | 19.41417 | 109.05635 | 37917 ft | 495 kts | 233° |
| 2026-05-07 15:31 | 19.37340 | 109.00356 | 37912 ft | 495 kts | 233° |
| 2026-05-07 15:31 | 19.33253 | 108.95068 | 37906 ft | 495 kts | 233° |
| 2026-05-07 15:32 | 19.29181 | 108.89803 | 37906 ft | 495 kts | 233° |
| 2026-05-07 15:32 | 19.25141 | 108.84583 | 37905 ft | 495 kts | 233° |
| 2026-05-07 15:33 | 19.21058 | 108.79313 | 37904 ft | 494 kts | 233° |
| 2026-05-07 15:33 | 19.17027 | 108.74111 | 37906 ft | 493 kts | 233° |
| 2026-05-07 15:34 | 19.12899 | 108.68790 | 37904 ft | 493 kts | 233° |
| 2026-05-07 15:34 | 19.08778 | 108.63483 | 37903 ft | 493 kts | 233° |
| 2026-05-07 15:35 | 19.04727 | 108.58270 | 37902 ft | 494 kts | 234° |
| 2026-05-07 15:35 | 19.00641 | 108.53017 | 37902 ft | 494 kts | 234° |
| 2026-05-07 15:36 | 18.96615 | 108.47844 | 37897 ft | 494 kts | 233° |
| 2026-05-07 15:36 | 18.92570 | 108.42653 | 37898 ft | 495 kts | 233° |
| 2026-05-07 15:37 | 18.88450 | 108.37368 | 37891 ft | 495 kts | 233° |
| 2026-05-07 15:37 | 18.84362 | 108.32130 | 37891 ft | 496 kts | 233° |
| 2026-05-07 15:38 | 18.80267 | 108.26887 | 37891 ft | 495 kts | 233° |
| 2026-05-07 15:38 | 18.76250 | 108.21749 | 37890 ft | 495 kts | 233° |
| 2026-05-07 15:39 | 18.72202 | 108.16575 | 37889 ft | 495 kts | 233° |
| 2026-05-07 15:39 | 18.68167 | 108.11422 | 37885 ft | 495 kts | 233° |
| 2026-05-07 15:40 | 18.64108 | 108.06242 | 37880 ft | 495 kts | 233° |
| 2026-05-07 15:40 | 18.60049 | 108.01067 | 37876 ft | 495 kts | 233° |
| 2026-05-07 15:41 | 18.55995 | 107.95903 | 37882 ft | 495 kts | 233° |
| 2026-05-07 15:41 | 18.51957 | 107.90762 | 37879 ft | 495 kts | 233° |
| 2026-05-07 15:42 | 18.47967 | 107.85687 | 37877 ft | 496 kts | 233° |
| 2026-05-07 15:42 | 18.43934 | 107.80563 | 37874 ft | 497 kts | 233° |
| 2026-05-07 15:43 | 18.40036 | 107.75439 | 37876 ft | 493 kts | 239° |
| 2026-05-07 15:43 | 18.37448 | 107.70174 | 37875 ft | 489 kts | 252° |
| 2026-05-07 15:44 | 18.36081 | 107.63944 | 37875 ft | 483 kts | 267° |
| 2026-05-07 15:44 | 18.36301 | 107.57453 | 37869 ft | 479 kts | 281° |
| 2026-05-07 15:45 | 18.37576 | 107.50906 | 37874 ft | 479 kts | 283° |
| 2026-05-07 15:45 | 18.38840 | 107.44607 | 37871 ft | 477 kts | 283° |
| 2026-05-07 15:46 | 18.40718 | 107.35179 | 37871 ft | 478 kts | 283° |
| 2026-05-07 15:47 | 18.41927 | 107.29080 | 37878 ft | 477 kts | 283° |
| 2026-05-07 15:47 | 18.43136 | 107.22967 | 37876 ft | 477 kts | 283° |
| 2026-05-07 15:48 | 18.44319 | 107.16967 | 37878 ft | 476 kts | 283° |
| 2026-05-07 15:48 | 18.45563 | 107.10646 | 37877 ft | 477 kts | 283° |
| 2026-05-07 15:49 | 18.46814 | 107.04275 | 37878 ft | 478 kts | 283° |
| 2026-05-07 15:49 | 18.48038 | 106.98020 | 37879 ft | 478 kts | 283° |
| 2026-05-07 15:50 | 18.49239 | 106.91871 | 37881 ft | 476 kts | 283° |
| 2026-05-07 15:50 | 18.50428 | 106.85775 | 37884 ft | 478 kts | 283° |
| 2026-05-07 15:51 | 18.51562 | 106.79947 | 37881 ft | 476 kts | 283° |
| 2026-05-07 15:51 | 18.52744 | 106.73863 | 37885 ft | 477 kts | 283° |
| 2026-05-07 15:52 | 18.53997 | 106.67403 | 37884 ft | 475 kts | 283° |
| 2026-05-07 15:52 | 18.55258 | 106.60886 | 37880 ft | 478 kts | 282° |
| 2026-05-07 15:53 | 18.56537 | 106.54320 | 37880 ft | 477 kts | 283° |
| 2026-05-07 15:53 | 18.57796 | 106.47905 | 37883 ft | 476 kts | 283° |
| 2026-05-07 15:54 | 18.59055 | 106.41475 | 37881 ft | 478 kts | 283° |
| 2026-05-07 15:54 | 18.60264 | 106.35287 | 37881 ft | 477 kts | 283° |
| 2026-05-07 15:55 | 18.61476 | 106.29071 | 37881 ft | 478 kts | 282° |
| 2026-05-07 15:55 | 18.62678 | 106.22892 | 37893 ft | 477 kts | 282° |
| 2026-05-07 15:56 | 18.63876 | 106.16720 | 37887 ft | 479 kts | 282° |
| 2026-05-07 15:56 | 18.65050 | 106.10664 | 37888 ft | 476 kts | 282° |
| 2026-05-07 15:57 | 18.66200 | 106.04691 | 37879 ft | 476 kts | 282° |
| 2026-05-07 15:57 | 18.67096 | 106.00004 | 37883 ft | 476 kts | 282° |
| 2026-05-07 15:58 | 18.68132 | 105.94589 | 37879 ft | 478 kts | 282° |
| 2026-05-07 15:58 | 18.69205 | 105.88965 | 37882 ft | 477 kts | 282° |
| 2026-05-07 15:59 | 18.70281 | 105.83318 | 37879 ft | 478 kts | 282° |
| 2026-05-07 15:59 | 18.71341 | 105.77747 | 37887 ft | 480 kts | 282° |
| 2026-05-07 16:00 | 18.72424 | 105.72043 | 37884 ft | 478 kts | 282° |
| 2026-05-07 16:00 | 18.73600 | 105.66423 | 37884 ft | 478 kts | 288° |
| 2026-05-07 16:01 | 18.75411 | 105.60985 | 37894 ft | 478 kts | 291° |
| 2026-05-07 16:01 | 18.77302 | 105.55506 | 37894 ft | 477 kts | 291° |
| 2026-05-07 16:02 | 18.79127 | 105.50208 | 37900 ft | 478 kts | 291° |
| 2026-05-07 16:02 | 18.81004 | 105.44746 | 37902 ft | 478 kts | 291° |
| 2026-05-07 16:03 | 18.82871 | 105.39305 | 37901 ft | 477 kts | 291° |
| 2026-05-07 16:03 | 18.84748 | 105.33830 | 37900 ft | 477 kts | 290° |
| 2026-05-07 16:04 | 18.86612 | 105.28385 | 37898 ft | 478 kts | 291° |
| 2026-05-07 16:04 | 18.88493 | 105.22882 | 37898 ft | 476 kts | 291° |
| 2026-05-07 16:05 | 18.90365 | 105.17400 | 37896 ft | 476 kts | 291° |
| 2026-05-07 16:05 | 18.92236 | 105.11916 | 37899 ft | 477 kts | 291° |
| 2026-05-07 16:06 | 18.94117 | 105.06394 | 37900 ft | 476 kts | 290° |
| 2026-05-07 16:06 | 18.95974 | 105.00939 | 37898 ft | 477 kts | 290° |
| 2026-05-07 16:07 | 18.97834 | 104.95470 | 37908 ft | 477 kts | 290° |
| 2026-05-07 16:07 | 18.99678 | 104.90039 | 37918 ft | 476 kts | 290° |
| 2026-05-07 16:08 | 19.01496 | 104.84681 | 37929 ft | 477 kts | 290° |
| 2026-05-07 16:08 | 19.03323 | 104.79288 | 37939 ft | 476 kts | 291° |
| 2026-05-07 16:09 | 19.05144 | 104.73910 | 37954 ft | 476 kts | 291° |
| 2026-05-07 16:09 | 19.06943 | 104.68589 | 37979 ft | 476 kts | 290° |
| 2026-05-07 16:10 | 19.08753 | 104.63231 | 37996 ft | 476 kts | 290° |
| 2026-05-07 16:10 | 19.10539 | 104.57938 | 38024 ft | 477 kts | 290° |
| 2026-05-07 16:11 | 19.12380 | 104.52477 | 38026 ft | 477 kts | 290° |
| 2026-05-07 16:11 | 19.14220 | 104.47011 | 38039 ft | 476 kts | 290° |
| 2026-05-07 16:12 | 19.16055 | 104.41554 | 38029 ft | 475 kts | 290° |
| 2026-05-07 16:12 | 19.17889 | 104.36096 | 38016 ft | 476 kts | 290° |
| 2026-05-07 16:13 | 19.19731 | 104.30605 | 38022 ft | 475 kts | 290° |
| 2026-05-07 16:13 | 19.21561 | 104.25146 | 38029 ft | 476 kts | 290° |
| 2026-05-07 16:14 | 19.23393 | 104.19675 | 38052 ft | 474 kts | 290° |
| 2026-05-07 16:14 | 19.25197 | 104.14282 | 38080 ft | 475 kts | 290° |
| 2026-05-07 16:15 | 19.27017 | 104.08836 | 38106 ft | 474 kts | 290° |
| 2026-05-07 16:15 | 19.28820 | 104.03434 | 38141 ft | 474 kts | 290° |
| 2026-05-07 16:16 | 19.30662 | 103.97909 | 38177 ft | 474 kts | 290° |
| 2026-05-07 16:16 | 19.32470 | 103.92479 | 38164 ft | 474 kts | 290° |
| 2026-05-07 16:17 | 19.34240 | 103.87071 | 38153 ft | 473 kts | 290° |
| 2026-05-07 16:17 | 19.36015 | 103.81616 | 38149 ft | 475 kts | 290° |
| 2026-05-07 16:18 | 19.37788 | 103.76163 | 38134 ft | 474 kts | 290° |
| 2026-05-07 16:18 | 19.39574 | 103.70669 | 38128 ft | 474 kts | 290° |
| 2026-05-07 16:19 | 19.41334 | 103.65249 | 38128 ft | 473 kts | 290° |
| 2026-05-07 16:19 | 19.42997 | 103.60129 | 38127 ft | 473 kts | 290° |
| 2026-05-07 16:20 | 19.44778 | 103.54897 | 38127 ft | 473 kts | 291° |
| 2026-05-07 16:20 | 19.46362 | 103.50270 | 38127 ft | 473 kts | 290° |